createdAt,value
2022-10-20T00:00:50.778Z,1003.79
2022-10-20T00:01:50.726Z,1003.79
2022-10-20T00:02:50.818Z,1003.84
2022-10-20T00:03:50.687Z,1003.80
2022-10-20T00:04:50.695Z,1003.77
2022-10-20T00:05:50.665Z,1003.78
2022-10-20T00:06:50.686Z,1003.72
2022-10-20T00:07:50.644Z,1003.68
2022-10-20T00:08:50.675Z,1003.65
2022-10-20T00:09:50.625Z,1003.63
2022-10-20T00:10:50.630Z,1003.64
2022-10-20T00:11:50.604Z,1003.67
2022-10-20T00:12:50.647Z,1003.65
2022-10-20T00:13:50.584Z,1003.70
2022-10-20T00:14:50.580Z,1003.71
2022-10-20T00:15:50.553Z,1003.69
2022-10-20T00:16:50.544Z,1003.72
2022-10-20T00:17:50.552Z,1003.75
2022-10-20T00:18:50.558Z,1003.74
2022-10-20T00:19:50.506Z,1003.69
2022-10-20T00:20:50.503Z,1003.70
2022-10-20T00:21:50.483Z,1003.65
2022-10-20T00:22:50.483Z,1003.71
2022-10-20T00:23:50.492Z,1003.73
2022-10-20T00:24:50.460Z,1003.67
2022-10-20T00:25:50.444Z,1003.68
2022-10-20T00:26:50.434Z,1003.62
2022-10-20T00:27:50.423Z,1003.62
2022-10-20T00:28:50.406Z,1003.64
2022-10-20T00:29:50.413Z,1003.62
2022-10-20T00:30:50.389Z,1003.66
2022-10-20T00:31:50.373Z,1003.61
2022-10-20T00:32:50.365Z,1003.59
2022-10-20T00:33:50.376Z,1003.58
2022-10-20T00:34:50.373Z,1003.54
2022-10-20T00:35:50.339Z,1003.59
2022-10-20T00:36:51.413Z,1003.58
2022-10-20T00:37:50.306Z,1003.57
2022-10-20T00:38:50.303Z,1003.59
2022-10-20T00:39:50.298Z,1003.61
2022-10-20T00:40:50.317Z,1003.62
2022-10-20T00:41:50.256Z,1003.65
2022-10-20T00:42:50.271Z,1003.55
2022-10-20T00:43:50.244Z,1003.53
2022-10-20T00:44:50.723Z,1003.55
2022-10-20T00:45:50.232Z,1003.53
2022-10-20T00:46:50.479Z,1003.52
2022-10-20T00:47:50.216Z,1003.46
2022-10-20T00:48:50.190Z,1003.43
2022-10-20T00:49:50.175Z,1003.42
2022-10-20T00:50:50.165Z,1003.37
2022-10-20T00:51:50.174Z,1003.40
2022-10-20T00:52:50.142Z,1003.39
2022-10-20T00:53:50.123Z,1003.37
2022-10-20T00:54:50.122Z,1003.36
2022-10-20T00:55:50.113Z,1003.30
2022-10-20T00:56:50.161Z,1003.28
2022-10-20T00:57:50.144Z,1003.23
2022-10-20T00:58:50.110Z,1003.20
2022-10-20T00:59:50.065Z,1003.22
2022-10-20T01:00:50.056Z,1003.19
2022-10-20T01:01:50.140Z,1003.22
2022-10-20T01:02:50.034Z,1003.26
2022-10-20T01:03:50.072Z,1003.18
2022-10-20T01:04:50.002Z,1003.18
2022-10-20T01:05:50.015Z,1003.13
2022-10-20T01:06:50.001Z,1003.11
2022-10-20T01:07:49.973Z,1003.12
2022-10-20T01:08:50.008Z,1003.09
2022-10-20T01:09:49.974Z,1003.04
2022-10-20T01:10:49.946Z,1002.98
2022-10-20T01:11:49.933Z,1002.99
2022-10-20T01:12:49.912Z,1002.94
2022-10-20T01:13:49.902Z,1002.93
2022-10-20T01:14:49.893Z,1002.93
2022-10-20T01:15:49.927Z,1002.88
2022-10-20T01:16:49.872Z,1002.88
2022-10-20T01:17:49.865Z,1002.84
2022-10-20T01:18:49.857Z,1002.83
2022-10-20T01:19:49.832Z,1002.82
2022-10-20T01:20:49.841Z,1002.80
2022-10-20T01:21:49.834Z,1002.78
2022-10-20T01:22:49.817Z,1002.71
2022-10-20T01:23:49.804Z,1002.75
2022-10-20T01:24:49.792Z,1002.75
2022-10-20T01:25:49.784Z,1002.71
2022-10-20T01:26:49.796Z,1002.72
2022-10-20T01:27:49.754Z,1002.76
2022-10-20T01:28:49.741Z,1002.69
2022-10-20T01:29:49.722Z,1002.68
2022-10-20T01:30:49.724Z,1002.74
2022-10-20T01:31:49.693Z,1002.77
2022-10-20T01:32:49.731Z,1002.64
2022-10-20T01:33:49.685Z,1002.69
2022-10-20T01:34:52.180Z,1002.61
2022-10-20T01:35:49.673Z,1002.68
2022-10-20T01:36:49.650Z,1002.72
2022-10-20T01:37:50.827Z,1002.64
2022-10-20T01:38:49.658Z,1002.71
2022-10-20T01:39:49.612Z,1002.65
2022-10-20T01:40:49.605Z,1002.63
2022-10-20T01:41:49.600Z,1002.61
2022-10-20T01:42:49.581Z,1002.63
2022-10-20T01:43:49.622Z,1002.62
2022-10-20T01:44:49.561Z,1002.69
2022-10-20T01:45:49.546Z,1002.72
2022-10-20T01:46:49.542Z,1002.69
2022-10-20T01:47:49.523Z,1002.76
2022-10-20T01:48:49.517Z,1002.78
2022-10-20T01:49:49.530Z,1002.71
2022-10-20T01:50:49.506Z,1002.76
2022-10-20T01:51:49.491Z,1002.66
2022-10-20T01:52:49.473Z,1002.63
2022-10-20T01:53:49.462Z,1002.65
2022-10-20T01:54:49.441Z,1002.60
2022-10-20T01:55:49.459Z,1002.63
2022-10-20T01:56:49.421Z,1002.60
2022-10-20T01:57:49.415Z,1002.60
2022-10-20T01:58:49.401Z,1002.62
2022-10-20T01:59:49.389Z,1002.58
2022-10-20T02:00:49.417Z,1002.62
2022-10-20T02:01:49.473Z,1002.57
2022-10-20T02:02:49.354Z,1002.61
2022-10-20T02:03:49.345Z,1002.57
2022-10-20T02:04:49.333Z,1002.56
2022-10-20T02:05:49.351Z,1002.61
2022-10-20T02:06:49.323Z,1002.59
2022-10-20T02:07:49.311Z,1002.61
2022-10-20T02:08:49.356Z,1002.54
2022-10-20T02:09:49.318Z,1002.50
2022-10-20T02:10:49.269Z,1002.55
2022-10-20T02:11:49.252Z,1002.52
2022-10-20T02:12:49.261Z,1002.49
2022-10-20T02:13:49.240Z,1002.45
2022-10-20T02:14:49.221Z,1002.47
2022-10-20T02:15:49.208Z,1002.41
2022-10-20T02:16:49.201Z,1002.42
2022-10-20T02:17:49.183Z,1002.44
2022-10-20T02:18:49.346Z,1002.37
2022-10-20T02:19:49.174Z,1002.37
2022-10-20T02:20:49.169Z,1002.34
2022-10-20T02:21:49.144Z,1002.38
2022-10-20T02:22:49.131Z,1002.42
2022-10-20T02:23:49.164Z,1002.40
2022-10-20T02:24:49.130Z,1002.47
2022-10-20T02:25:49.113Z,1002.40
2022-10-20T02:26:49.100Z,1002.44
2022-10-20T02:27:49.106Z,1002.48
2022-10-20T02:28:49.069Z,1002.43
2022-10-20T02:29:49.089Z,1002.39
2022-10-20T02:30:49.051Z,1002.47
2022-10-20T02:31:49.030Z,1002.34
2022-10-20T02:32:49.029Z,1002.39
2022-10-20T02:33:49.023Z,1002.34
2022-10-20T02:34:49.000Z,1002.30
2022-10-20T02:35:49.000Z,1002.27
2022-10-20T02:36:48.980Z,1002.23
2022-10-20T02:37:48.961Z,1002.22
2022-10-20T02:38:48.952Z,1002.22
2022-10-20T02:39:48.939Z,1002.26
2022-10-20T02:40:48.950Z,1002.22
2022-10-20T02:41:48.920Z,1002.26
2022-10-20T02:42:48.912Z,1002.19
2022-10-20T02:43:48.903Z,1002.20
2022-10-20T02:44:48.891Z,1002.15
2022-10-20T02:45:48.869Z,1002.21
2022-10-20T02:46:48.943Z,1002.13
2022-10-20T02:47:48.849Z,1002.12
2022-10-20T02:48:48.840Z,1002.11
2022-10-20T02:49:48.827Z,1002.06
2022-10-20T02:50:48.822Z,1002.07
2022-10-20T02:51:48.799Z,1002.07
2022-10-20T02:52:48.818Z,1002.05
2022-10-20T02:53:48.779Z,1002.01
2022-10-20T02:54:48.771Z,1002.02
2022-10-20T02:55:48.750Z,1002.02
2022-10-20T02:56:48.749Z,1002.03
2022-10-20T02:57:48.750Z,1002.10
2022-10-20T02:58:48.727Z,1002.13
2022-10-20T02:59:48.717Z,1002.15
2022-10-20T03:00:48.710Z,1002.14
2022-10-20T03:01:48.742Z,1002.19
2022-10-20T03:02:48.678Z,1002.18
2022-10-20T03:03:48.739Z,1002.15
2022-10-20T03:04:48.660Z,1002.08
2022-10-20T03:05:48.647Z,1002.10
2022-10-20T03:06:48.639Z,1002.10
2022-10-20T03:07:48.628Z,1002.04
2022-10-20T03:08:48.649Z,1002.01
2022-10-20T03:09:48.734Z,1002.04
2022-10-20T03:10:48.592Z,1002.02
2022-10-20T03:11:48.578Z,1002.09
2022-10-20T03:12:48.579Z,1002.05
2022-10-20T03:13:48.556Z,1002.03
2022-10-20T03:14:48.547Z,1002.02
2022-10-20T03:15:48.560Z,1001.99
2022-10-20T03:16:48.522Z,1001.95
2022-10-20T03:17:48.511Z,1001.93
2022-10-20T03:18:48.502Z,1001.97
2022-10-20T03:19:48.487Z,1002.02
2022-10-20T03:20:48.499Z,1001.99
2022-10-20T03:21:48.476Z,1002.04
2022-10-20T03:22:48.450Z,1002.09
2022-10-20T03:23:48.448Z,1002.09
2022-10-20T03:24:48.429Z,1002.10
2022-10-20T03:25:48.431Z,1002.06
2022-10-20T03:26:48.422Z,1002.07
2022-10-20T03:27:48.398Z,1002.03
2022-10-20T03:28:48.382Z,1002.03
2022-10-20T03:29:48.376Z,1002.06
2022-10-20T03:30:48.357Z,1002.06
2022-10-20T03:32:48.347Z,1002.05
2022-10-20T03:33:48.332Z,1002.03
2022-10-20T03:34:48.311Z,1002.04
2022-10-20T03:35:48.312Z,1002.05
2022-10-20T03:36:48.288Z,1002.04
2022-10-20T03:37:48.300Z,1002.04
2022-10-20T03:38:48.257Z,1002.01
2022-10-20T03:39:48.248Z,1001.98
2022-10-20T03:40:48.250Z,1001.92
2022-10-20T03:41:48.238Z,1001.99
2022-10-20T03:42:48.236Z,1001.94
2022-10-20T03:43:48.227Z,1001.91
2022-10-20T03:44:48.212Z,1001.87
2022-10-20T03:45:48.187Z,1001.87
2022-10-20T03:46:48.179Z,1001.84
2022-10-20T03:47:48.169Z,1001.80
2022-10-20T03:48:48.197Z,1001.83
2022-10-20T03:49:48.146Z,1001.84
2022-10-20T03:50:48.135Z,1001.82
2022-10-20T03:51:48.115Z,1001.80
2022-10-20T03:52:48.106Z,1001.74
2022-10-20T03:53:48.088Z,1001.75
2022-10-20T03:54:48.128Z,1001.83
2022-10-20T03:55:48.078Z,1001.81
2022-10-20T03:56:48.059Z,1001.80
2022-10-20T03:57:48.046Z,1001.76
2022-10-20T03:58:48.038Z,1001.77
2022-10-20T03:59:48.026Z,1001.76
2022-10-20T04:00:48.037Z,1001.77
2022-10-20T04:01:48.054Z,1001.78
2022-10-20T04:02:55.032Z,1001.75
2022-10-20T04:03:47.979Z,1001.68
2022-10-20T04:04:47.961Z,1001.66
2022-10-20T04:05:47.960Z,1001.64
2022-10-20T04:06:47.960Z,1001.66
2022-10-20T04:07:47.931Z,1001.60
2022-10-20T04:08:47.984Z,1001.60
2022-10-20T04:09:47.907Z,1001.53
2022-10-20T04:10:47.890Z,1001.52
2022-10-20T04:11:47.880Z,1001.49
2022-10-20T04:12:47.889Z,1001.47
2022-10-20T04:13:47.860Z,1001.47
2022-10-20T04:14:47.849Z,1001.57
2022-10-20T04:15:47.839Z,1001.57
2022-10-20T04:16:47.820Z,1001.54
2022-10-20T04:17:47.810Z,1001.51
2022-10-20T04:18:47.817Z,1001.56
2022-10-20T04:19:47.790Z,1001.57
2022-10-20T04:20:47.769Z,1001.60
2022-10-20T04:21:47.769Z,1001.55
2022-10-20T04:22:47.750Z,1001.60
2022-10-20T04:23:47.769Z,1001.56
2022-10-20T04:24:47.730Z,1001.54
2022-10-20T04:25:47.727Z,1001.50
2022-10-20T04:26:47.746Z,1001.52
2022-10-20T04:27:47.699Z,1001.44
2022-10-20T04:28:47.686Z,1001.42
2022-10-20T04:29:47.699Z,1001.39
2022-10-20T04:30:47.666Z,1001.41
2022-10-20T04:31:49.177Z,1001.32
2022-10-20T04:32:47.639Z,1001.32
2022-10-20T04:33:47.630Z,1001.29
2022-10-20T04:34:47.617Z,1001.29
2022-10-20T04:35:47.702Z,1001.31
2022-10-20T04:36:47.595Z,1001.29
2022-10-20T04:37:47.579Z,1001.24
2022-10-20T04:38:47.570Z,1001.17
2022-10-20T04:39:47.560Z,1001.21
2022-10-20T04:40:47.549Z,1001.17
2022-10-20T04:41:47.569Z,1001.17
2022-10-20T04:42:47.529Z,1001.11
2022-10-20T04:43:47.519Z,1001.15
2022-10-20T04:44:47.538Z,1001.12
2022-10-20T04:45:47.496Z,1001.12
2022-10-20T04:46:47.479Z,1001.07
2022-10-20T04:47:47.488Z,1001.10
2022-10-20T04:48:47.461Z,1001.06
2022-10-20T04:49:47.451Z,1001.03
2022-10-20T04:50:47.438Z,1001.05
2022-10-20T04:51:47.427Z,1001.01
2022-10-20T04:52:47.460Z,1000.98
2022-10-20T04:53:47.408Z,1000.94
2022-10-20T04:54:47.388Z,1000.95
2022-10-20T04:55:47.379Z,1000.85
2022-10-20T04:56:47.367Z,1000.89
2022-10-20T04:57:47.368Z,1000.79
2022-10-20T04:58:47.372Z,1000.90
2022-10-20T04:59:47.340Z,1000.80
2022-10-20T05:00:47.326Z,1000.83
2022-10-20T05:01:47.342Z,1000.87
2022-10-20T05:02:47.306Z,1000.86
2022-10-20T05:03:47.289Z,1000.88
2022-10-20T05:04:47.299Z,1000.87
2022-10-20T05:05:47.267Z,1000.82
2022-10-20T05:06:47.259Z,1000.80
2022-10-20T05:07:47.248Z,1000.78
2022-10-20T05:08:47.290Z,1000.83
2022-10-20T05:09:47.257Z,1000.85
2022-10-20T05:10:47.247Z,1000.82
2022-10-20T05:11:47.205Z,1000.87
2022-10-20T05:12:47.187Z,1000.81
2022-10-20T05:13:47.178Z,1000.82
2022-10-20T05:14:47.161Z,1000.81
2022-10-20T05:15:47.158Z,1000.80
2022-10-20T05:16:47.155Z,1000.77
2022-10-20T05:17:47.128Z,1000.72
2022-10-20T05:18:47.118Z,1000.67
2022-10-20T05:19:47.107Z,1000.63
2022-10-20T05:21:07.419Z,1000.60
2022-10-20T05:21:48.110Z,1000.55
2022-10-20T05:22:47.069Z,1000.53
2022-10-20T05:23:47.070Z,1000.51
2022-10-20T05:24:47.056Z,1000.41
2022-10-20T05:25:47.038Z,1000.46
2022-10-20T05:26:47.034Z,1000.42
2022-10-20T05:27:47.037Z,1000.37
2022-10-20T05:28:47.011Z,1000.36
2022-10-20T05:29:47.008Z,1000.34
2022-10-20T05:30:46.989Z,1000.31
2022-10-20T05:31:46.978Z,1000.31
2022-10-20T05:32:46.968Z,1000.27
2022-10-20T05:33:46.968Z,1000.31
2022-10-20T05:34:46.937Z,1000.34
2022-10-20T05:35:46.937Z,1000.34
2022-10-20T05:36:46.907Z,1000.38
2022-10-20T05:37:46.897Z,1000.35
2022-10-20T05:38:46.886Z,1000.35
2022-10-20T05:40:46.865Z,1000.31
2022-10-20T05:41:46.865Z,1000.27
2022-10-20T05:42:46.844Z,1000.30
2022-10-20T05:43:46.835Z,1000.24
2022-10-20T05:44:46.817Z,1000.24
2022-10-20T05:45:46.827Z,1000.27
2022-10-20T05:46:46.795Z,1000.24
2022-10-20T05:47:46.789Z,1000.28
2022-10-20T05:48:46.780Z,1000.29
2022-10-20T05:49:46.765Z,1000.27
2022-10-20T05:50:46.748Z,1000.30
2022-10-20T05:51:46.806Z,1000.32
2022-10-20T05:52:46.726Z,1000.27
2022-10-20T05:53:46.715Z,1000.27
2022-10-20T05:54:46.705Z,1000.25
2022-10-20T05:55:46.705Z,1000.25
2022-10-20T05:56:46.677Z,1000.22
2022-10-20T05:57:46.696Z,1000.22
2022-10-20T05:58:46.656Z,1000.22
2022-10-20T05:59:46.658Z,1000.25
2022-10-20T06:00:46.664Z,1000.22
2022-10-20T06:01:46.628Z,1000.22
2022-10-20T06:02:46.626Z,1000.21
2022-10-20T06:03:46.606Z,1000.22
2022-10-20T06:04:46.585Z,1000.25
2022-10-20T06:05:46.585Z,1000.26
2022-10-20T06:06:46.566Z,1000.26
2022-10-20T06:07:46.565Z,1000.16
2022-10-20T06:08:46.603Z,1000.21
2022-10-20T06:09:46.538Z,1000.21
2022-10-20T06:10:46.518Z,1000.17
2022-10-20T06:11:46.517Z,1000.16
2022-10-20T06:12:46.494Z,1000.12
2022-10-20T06:13:48.653Z,1000.14
2022-10-20T06:14:47.477Z,1000.20
2022-10-20T06:15:46.465Z,1000.22
2022-10-20T06:16:46.454Z,1000.17
2022-10-20T06:17:46.445Z,1000.22
2022-10-20T06:18:46.430Z,1000.21
2022-10-20T06:19:46.445Z,1000.22
2022-10-20T06:20:46.410Z,1000.24
2022-10-20T06:21:48.078Z,1000.25
2022-10-20T06:22:46.386Z,1000.23
2022-10-20T06:23:46.375Z,1000.19
2022-10-20T06:24:46.364Z,1000.20
2022-10-20T06:25:46.375Z,1000.24
2022-10-20T06:26:46.342Z,1000.26
2022-10-20T06:27:46.334Z,1000.31
2022-10-20T06:28:46.313Z,1000.27
2022-10-20T06:29:46.315Z,1000.39
2022-10-20T06:30:46.295Z,1000.38
2022-10-20T06:31:46.309Z,1000.36
2022-10-20T06:32:46.275Z,1000.38
2022-10-20T06:33:46.266Z,1000.41
2022-10-20T06:34:46.246Z,1000.39
2022-10-20T06:35:46.243Z,1000.42
2022-10-20T06:36:46.226Z,1000.45
2022-10-20T06:37:46.244Z,1000.42
2022-10-20T06:38:46.214Z,1000.42
2022-10-20T06:39:46.205Z,1000.42
2022-10-20T06:40:46.184Z,1000.40
2022-10-20T06:41:46.181Z,1000.35
2022-10-20T06:42:46.196Z,1000.34
2022-10-20T06:43:46.179Z,1000.33
2022-10-20T06:44:46.140Z,1000.39
2022-10-20T06:45:46.132Z,1000.35
2022-10-20T06:46:46.118Z,1000.33
2022-10-20T06:47:46.119Z,1000.32
2022-10-20T06:48:46.094Z,1000.41
2022-10-20T06:49:46.112Z,1000.39
2022-10-20T06:50:46.074Z,1000.36
2022-10-20T06:51:46.157Z,1000.28
2022-10-20T06:52:46.054Z,1000.36
2022-10-20T06:53:46.968Z,1000.34
2022-10-20T06:54:46.053Z,1000.40
2022-10-20T06:55:46.025Z,1000.36
2022-10-20T06:56:46.011Z,1000.36
2022-10-20T06:57:45.993Z,1000.38
2022-10-20T06:58:45.981Z,1000.48
2022-10-20T06:59:45.973Z,1000.45
2022-10-20T07:00:45.974Z,1000.43
2022-10-20T07:01:46.060Z,1000.46
2022-10-20T07:02:45.933Z,1000.37
2022-10-20T07:03:45.934Z,1000.37
2022-10-20T07:04:45.914Z,1000.40
2022-10-20T07:05:45.926Z,1000.47
2022-10-20T07:06:45.891Z,1000.47
2022-10-20T07:07:45.883Z,1000.47
2022-10-20T07:08:45.943Z,1000.47
2022-10-20T07:09:45.863Z,1000.53
2022-10-20T07:10:45.848Z,1000.56
2022-10-20T07:11:45.862Z,1000.46
2022-10-20T07:12:45.826Z,1000.48
2022-10-20T07:13:45.814Z,1000.54
2022-10-20T07:14:45.802Z,1000.57
2022-10-20T07:15:45.793Z,1000.57
2022-10-20T07:16:45.774Z,1000.54
2022-10-20T07:17:45.784Z,1000.53
2022-10-20T07:18:45.768Z,1000.63
2022-10-20T07:19:45.750Z,1000.66
2022-10-20T07:20:45.733Z,1000.67
2022-10-20T07:21:46.005Z,1000.65
2022-10-20T07:22:45.734Z,1000.58
2022-10-20T07:23:45.704Z,1000.57
2022-10-20T07:24:45.694Z,1000.53
2022-10-20T07:25:45.676Z,1000.52
2022-10-20T07:26:45.665Z,1000.58
2022-10-20T07:27:45.655Z,1000.53
2022-10-20T07:28:45.663Z,1000.52
2022-10-20T07:29:45.634Z,1000.56
2022-10-20T07:30:45.623Z,1000.51
2022-10-20T07:31:45.614Z,1000.57
2022-10-20T07:32:45.605Z,1000.56
2022-10-20T07:33:56.528Z,1000.63
2022-10-20T07:34:46.576Z,1000.66
2022-10-20T07:35:45.564Z,1000.68
2022-10-20T07:36:45.553Z,1000.66
2022-10-20T07:37:45.541Z,1000.60
2022-10-20T07:38:45.538Z,1000.57
2022-10-20T07:39:45.554Z,1000.52
2022-10-20T07:40:45.514Z,1000.46
2022-10-20T07:41:45.494Z,1000.40
2022-10-20T07:42:45.485Z,1000.39
2022-10-20T07:43:45.475Z,1000.40
2022-10-20T07:44:45.463Z,1000.43
2022-10-20T07:45:45.473Z,1000.46
2022-10-20T07:46:45.451Z,1000.52
2022-10-20T07:47:47.566Z,1000.54
2022-10-20T07:48:45.422Z,1000.56
2022-10-20T07:49:45.536Z,1000.45
2022-10-20T07:50:45.402Z,1000.46
2022-10-20T07:51:45.404Z,1000.43
2022-10-20T07:52:45.375Z,1000.51
2022-10-20T07:53:45.362Z,1000.55
2022-10-20T07:54:45.355Z,1000.57
2022-10-20T07:55:45.335Z,1000.57
2022-10-20T07:56:45.326Z,1000.58
2022-10-20T07:57:45.325Z,1000.57
2022-10-20T07:58:45.305Z,1000.57
2022-10-20T07:59:45.295Z,1000.52
2022-10-20T08:00:45.295Z,1000.47
2022-10-20T08:01:45.343Z,1000.44
2022-10-20T08:02:45.286Z,1000.52
2022-10-20T08:03:45.245Z,1000.49
2022-10-20T08:04:45.234Z,1000.46
2022-10-20T08:05:45.225Z,1000.41
2022-10-20T08:06:45.226Z,1000.40
2022-10-20T08:07:45.203Z,1000.38
2022-10-20T08:08:45.235Z,1000.40
2022-10-20T08:10:45.174Z,1000.41
2022-10-20T08:11:45.162Z,1000.35
2022-10-20T08:12:45.144Z,1000.41
2022-10-20T08:13:45.135Z,1000.41
2022-10-20T08:14:45.267Z,1000.38
2022-10-20T08:15:47.482Z,1000.26
2022-10-20T08:16:45.134Z,1000.32
2022-10-20T08:17:45.096Z,1000.28
2022-10-20T08:18:47.686Z,1000.31
2022-10-20T08:19:47.448Z,1000.28
2022-10-20T08:20:45.805Z,1000.26
2022-10-20T08:21:45.045Z,1000.33
2022-10-20T08:22:45.036Z,1000.29
2022-10-20T08:23:45.028Z,1000.28
2022-10-20T08:24:45.015Z,1000.24
2022-10-20T08:25:45.005Z,1000.22
2022-10-20T08:26:45.007Z,1000.29
2022-10-20T08:27:45.045Z,1000.24
2022-10-20T08:28:44.966Z,1000.22
2022-10-20T08:29:50.889Z,1000.22
2022-10-20T08:30:45.947Z,1000.24
2022-10-20T08:31:44.957Z,1000.15
2022-10-20T08:32:44.925Z,1000.13
2022-10-20T08:33:48.819Z,1000.22
2022-10-20T08:34:45.908Z,1000.27
2022-10-20T08:35:44.886Z,1000.18
2022-10-20T08:36:44.884Z,1000.19
2022-10-20T08:37:44.878Z,1000.14
2022-10-20T08:38:44.860Z,1000.13
2022-10-20T08:39:44.846Z,1000.11
2022-10-20T08:40:44.845Z,1000.22
2022-10-20T08:42:06.837Z,1000.21
2022-10-20T08:42:45.836Z,1000.22
2022-10-20T08:43:44.806Z,1000.21
2022-10-20T08:44:44.823Z,1000.25
2022-10-20T08:45:44.797Z,1000.17
2022-10-20T08:46:44.767Z,1000.17
2022-10-20T08:47:44.756Z,1000.06
2022-10-20T08:48:44.775Z,1000.10
2022-10-20T08:49:44.737Z,1000.13
2022-10-20T08:50:44.739Z,1000.14
2022-10-20T08:51:44.715Z,1000.14
2022-10-20T08:52:44.707Z,1000.14
2022-10-20T08:53:44.687Z,1000.15
2022-10-20T08:54:44.944Z,1000.15
2022-10-20T08:55:44.690Z,1000.12
2022-10-20T08:56:44.670Z,1000.09
2022-10-20T08:57:44.648Z,1000.09
2022-10-20T08:58:44.651Z,1000.07
2022-10-20T08:59:44.619Z,1000.05
2022-10-20T09:00:44.630Z,1000.02
2022-10-20T09:01:44.674Z,1000.06
2022-10-20T09:02:44.598Z,1000.02
2022-10-20T09:03:44.576Z,999.98
2022-10-20T09:04:44.573Z,1000.01
2022-10-20T09:05:45.306Z,999.90
2022-10-20T09:06:44.547Z,999.94
2022-10-20T09:07:44.537Z,999.94
2022-10-20T09:08:44.546Z,999.96
2022-10-20T09:09:44.508Z,999.96
2022-10-20T09:10:44.497Z,1000.02
2022-10-20T09:11:44.560Z,999.96
2022-10-20T09:12:44.497Z,999.94
2022-10-20T09:13:44.500Z,999.98
2022-10-20T09:14:44.457Z,999.89
2022-10-20T09:15:44.449Z,999.79
2022-10-20T09:16:59.361Z,999.73
2022-10-20T09:17:45.440Z,999.70
2022-10-20T09:18:44.418Z,999.72
2022-10-20T09:19:44.397Z,999.71
2022-10-20T09:20:44.444Z,999.75
2022-10-20T09:21:44.381Z,999.86
2022-10-20T09:22:44.367Z,999.78
2022-10-20T09:23:44.425Z,999.80
2022-10-20T09:24:44.417Z,999.78
2022-10-20T09:25:44.341Z,999.85
2022-10-20T09:26:58.283Z,999.85
2022-10-20T09:27:45.411Z,999.90
2022-10-20T09:29:08.626Z,999.95
2022-10-20T09:29:45.288Z,999.94
2022-10-20T09:30:44.278Z,999.87
2022-10-20T09:31:44.260Z,999.97
2022-10-20T09:32:47.016Z,999.89
2022-10-20T09:33:44.251Z,999.84
2022-10-20T09:34:44.248Z,999.77
2022-10-20T09:35:44.223Z,999.68
2022-10-20T09:36:44.228Z,999.70
2022-10-20T09:37:44.197Z,999.75
2022-10-20T09:38:44.187Z,999.78
2022-10-20T09:39:44.185Z,999.93
2022-10-20T09:40:44.188Z,999.90
2022-10-20T09:41:44.160Z,999.86
2022-10-20T09:42:44.139Z,999.88
2022-10-20T09:43:44.128Z,999.81
2022-10-20T09:44:44.118Z,999.89
2022-10-20T09:45:44.109Z,999.87
2022-10-20T09:46:44.118Z,999.84
2022-10-20T09:47:44.087Z,999.84
2022-10-20T09:48:44.078Z,999.76
2022-10-20T09:49:44.060Z,999.76
2022-10-20T09:50:44.052Z,999.75
2022-10-20T09:51:44.078Z,999.73
2022-10-20T09:52:44.050Z,999.74
2022-10-20T09:53:44.009Z,999.79
2022-10-20T09:54:44.009Z,999.76
2022-10-20T09:55:44.017Z,999.77
2022-10-20T09:56:43.989Z,999.65
2022-10-20T09:57:44.052Z,999.66
2022-10-20T09:58:43.980Z,999.59
2022-10-20T09:59:43.949Z,999.54
2022-10-20T10:00:44.031Z,999.58
2022-10-20T10:01:43.931Z,999.54
2022-10-20T10:02:43.927Z,999.60
2022-10-20T10:03:51.024Z,999.76
2022-10-20T10:04:46.515Z,999.78
2022-10-20T10:05:43.884Z,999.76
2022-10-20T10:06:43.876Z,999.74
2022-10-20T10:07:43.864Z,999.69
2022-10-20T10:08:43.925Z,999.64
2022-10-20T10:09:43.875Z,999.66
2022-10-20T10:10:43.825Z,999.65
2022-10-20T10:11:43.815Z,999.73
2022-10-20T10:12:43.818Z,999.74
2022-10-20T10:13:43.794Z,999.65
2022-10-20T10:14:43.785Z,999.64
2022-10-20T10:15:43.787Z,999.63
2022-10-20T10:16:43.757Z,999.61
2022-10-20T10:17:43.745Z,999.59
2022-10-20T10:18:48.276Z,999.62
2022-10-20T10:19:44.725Z,999.67
2022-10-20T10:20:43.736Z,999.65
2022-10-20T10:21:43.695Z,999.68
2022-10-20T10:22:43.704Z,999.61
2022-10-20T10:23:43.675Z,999.73
2022-10-20T10:24:43.667Z,999.75
2022-10-20T10:25:43.655Z,999.74
2022-10-20T10:26:43.676Z,999.71
2022-10-20T10:27:43.634Z,999.68
2022-10-20T10:28:43.625Z,999.67
2022-10-20T10:29:43.611Z,999.63
2022-10-20T10:30:46.878Z,999.70
2022-10-20T10:31:44.605Z,999.73
2022-10-20T10:32:43.595Z,999.79
2022-10-20T10:33:43.569Z,999.78
2022-10-20T10:34:43.558Z,999.82
2022-10-20T10:35:43.586Z,999.80
2022-10-20T10:36:43.536Z,999.74
2022-10-20T10:37:43.536Z,999.70
2022-10-20T10:38:43.517Z,999.72
2022-10-20T10:39:43.496Z,999.80
2022-10-20T10:40:43.490Z,999.70
2022-10-20T10:41:43.466Z,999.76
2022-10-20T10:42:43.474Z,999.75
2022-10-20T10:43:46.241Z,999.74
2022-10-20T10:44:44.438Z,999.75
2022-10-20T10:45:43.437Z,999.76
2022-10-20T10:47:43.592Z,999.65
2022-10-20T10:48:43.399Z,999.68
2022-10-20T10:49:43.407Z,999.68
2022-10-20T10:50:43.367Z,999.68
2022-10-20T10:51:43.357Z,999.61
2022-10-20T10:52:43.348Z,999.56
2022-10-20T10:53:43.337Z,999.57
2022-10-20T10:54:43.367Z,999.53
2022-10-20T10:55:48.674Z,999.51
2022-10-20T10:56:44.307Z,999.49
2022-10-20T10:57:43.300Z,999.53
2022-10-20T10:58:43.292Z,999.55
2022-10-20T10:59:43.276Z,999.48
2022-10-20T11:00:43.644Z,999.43
2022-10-20T11:01:43.248Z,999.46
2022-10-20T11:02:43.238Z,999.43
2022-10-20T11:03:43.229Z,999.45
2022-10-20T11:04:43.218Z,999.40
2022-10-20T11:05:43.219Z,999.38
2022-10-20T11:06:43.218Z,999.35
2022-10-20T11:07:43.177Z,999.33
2022-10-20T11:08:43.207Z,999.36
2022-10-20T11:09:43.158Z,999.28
2022-10-20T11:10:43.148Z,999.26
2022-10-20T11:11:43.220Z,999.24
2022-10-20T11:12:43.148Z,999.21
2022-10-20T11:13:43.120Z,999.28
2022-10-20T11:14:43.109Z,999.24
2022-10-20T11:15:43.098Z,999.30
2022-10-20T11:16:43.079Z,999.25
2022-10-20T11:17:43.069Z,999.24
2022-10-20T11:18:43.079Z,999.23
2022-10-20T11:19:43.049Z,999.22
2022-10-20T11:20:43.039Z,999.21
2022-10-20T11:21:43.029Z,999.17
2022-10-20T11:22:43.016Z,999.17
2022-10-20T11:23:43.049Z,999.14
2022-10-20T11:24:42.998Z,999.09
2022-10-20T11:25:42.989Z,999.08
2022-10-20T11:26:42.978Z,999.12
2022-10-20T11:27:42.959Z,999.15
2022-10-20T11:28:42.950Z,999.07
2022-10-20T11:29:42.969Z,999.02
2022-10-20T11:30:42.928Z,999.02
2022-10-20T11:31:42.910Z,998.92
2022-10-20T11:32:42.911Z,998.95
2022-10-20T11:33:42.890Z,998.84
2022-10-20T11:34:42.900Z,998.83
2022-10-20T11:35:42.880Z,998.79
2022-10-20T11:36:42.849Z,998.82
2022-10-20T11:37:42.850Z,998.68
2022-10-20T11:38:42.829Z,998.58
2022-10-20T11:39:42.827Z,998.50
2022-10-20T11:40:42.830Z,998.47
2022-10-20T11:42:42.790Z,998.67
2022-10-20T11:43:42.779Z,998.76
2022-10-20T11:44:42.768Z,998.77
2022-10-20T11:45:42.793Z,998.78
2022-10-20T11:46:42.778Z,998.80
2022-10-20T11:47:42.740Z,998.75
2022-10-20T11:48:42.837Z,998.74
2022-10-20T11:49:42.709Z,998.68
2022-10-20T11:50:42.700Z,998.66
2022-10-20T11:51:42.690Z,998.61
2022-10-20T11:52:42.701Z,998.53
2022-10-20T11:53:42.672Z,998.55
2022-10-20T11:54:42.659Z,998.69
2022-10-20T11:55:42.708Z,998.71
2022-10-20T11:56:42.631Z,998.74
2022-10-20T11:57:42.648Z,998.79
2022-10-20T11:58:42.611Z,998.90
2022-10-20T11:59:42.601Z,998.92
2022-10-20T12:00:42.590Z,998.94
2022-10-20T12:01:42.629Z,999.03
2022-10-20T12:02:42.573Z,998.99
2022-10-20T12:03:42.582Z,998.96
2022-10-20T12:04:42.550Z,998.88
2022-10-20T12:05:42.550Z,998.87
2022-10-20T12:06:42.521Z,998.86
2022-10-20T12:07:42.513Z,998.84
2022-10-20T12:08:42.511Z,998.92
2022-10-20T12:09:42.501Z,998.84
2022-10-20T12:10:42.471Z,998.92
2022-10-20T12:11:42.469Z,998.86
2022-10-20T12:12:42.451Z,998.87
2022-10-20T12:13:42.442Z,998.89
2022-10-20T12:14:42.451Z,998.89
2022-10-20T12:15:42.441Z,998.88
2022-10-20T12:16:42.409Z,998.86